sensor_id;sensor_type;location;lat;lon;timestamp;temperature;humidity
62575;DHT22;70119;45.638;11.714;2023-05-17T00:01:36;24.30;52.40
62575;DHT22;70119;45.638;11.714;2023-05-17T00:04:02;24.30;52.40
62575;DHT22;70119;45.638;11.714;2023-05-17T00:06:28;24.30;52.40
62575;DHT22;70119;45.638;11.714;2023-05-17T00:08:54;24.30;52.40
62575;DHT22;70119;45.638;11.714;2023-05-17T00:11:20;24.30;52.40
62575;DHT22;70119;45.638;11.714;2023-05-17T00:13:46;24.30;52.40
62575;DHT22;70119;45.638;11.714;2023-05-17T00:16:12;24.30;52.40
62575;DHT22;70119;45.638;11.714;2023-05-17T00:18:38;24.30;52.40
62575;DHT22;70119;45.638;11.714;2023-05-17T00:21:04;24.30;52.30
62575;DHT22;70119;45.638;11.714;2023-05-17T00:23:29;24.30;52.30
62575;DHT22;70119;45.638;11.714;2023-05-17T00:25:55;24.30;52.30
62575;DHT22;70119;45.638;11.714;2023-05-17T00:28:21;24.30;52.30
62575;DHT22;70119;45.638;11.714;2023-05-17T00:30:47;24.30;52.30
62575;DHT22;70119;45.638;11.714;2023-05-17T00:33:13;24.20;52.30
62575;DHT22;70119;45.638;11.714;2023-05-17T00:35:38;24.30;52.30
62575;DHT22;70119;45.638;11.714;2023-05-17T00:38:04;24.30;52.30
62575;DHT22;70119;45.638;11.714;2023-05-17T00:40:30;24.30;52.30
62575;DHT22;70119;45.638;11.714;2023-05-17T00:42:56;24.30;52.30
62575;DHT22;70119;45.638;11.714;2023-05-17T00:45:22;24.30;52.30
62575;DHT22;70119;45.638;11.714;2023-05-17T00:47:48;24.30;52.30
62575;DHT22;70119;45.638;11.714;2023-05-17T00:50:14;24.30;52.30
62575;DHT22;70119;45.638;11.714;2023-05-17T00:52:40;24.20;52.30
62575;DHT22;70119;45.638;11.714;2023-05-17T00:55:06;24.20;52.30
62575;DHT22;70119;45.638;11.714;2023-05-17T00:57:32;24.20;52.30
62575;DHT22;70119;45.638;11.714;2023-05-17T00:59:58;24.20;52.30
62575;DHT22;70119;45.638;11.714;2023-05-17T01:02:24;24.20;52.30
62575;DHT22;70119;45.638;11.714;2023-05-17T01:04:50;24.20;52.30
62575;DHT22;70119;45.638;11.714;2023-05-17T01:07:16;24.20;52.30
62575;DHT22;70119;45.638;11.714;2023-05-17T01:09:42;24.20;52.40
62575;DHT22;70119;45.638;11.714;2023-05-17T01:15:28;24.20;52.30
62575;DHT22;70119;45.638;11.714;2023-05-17T01:20:36;24.10;52.40
62575;DHT22;70119;45.638;11.714;2023-05-17T01:28:32;24.10;52.40
62575;DHT22;70119;45.638;11.714;2023-05-17T01:31:01;24.10;52.40
62575;DHT22;70119;45.638;11.714;2023-05-17T01:33:27;24.10;52.40
62575;DHT22;70119;45.638;11.714;2023-05-17T01:35:54;24.10;52.40
62575;DHT22;70119;45.638;11.714;2023-05-17T01:38:20;24.10;52.50
62575;DHT22;70119;45.638;11.714;2023-05-17T01:40:54;24.10;52.40
62575;DHT22;70119;45.638;11.714;2023-05-17T01:43:27;24.10;52.40
62575;DHT22;70119;45.638;11.714;2023-05-17T01:48:44;24.10;52.50
62575;DHT22;70119;45.638;11.714;2023-05-17T01:51:17;24.10;52.50
62575;DHT22;70119;45.638;11.714;2023-05-17T01:53:51;24.10;52.50
62575;DHT22;70119;45.638;11.714;2023-05-17T01:56:27;24.10;52.50
62575;DHT22;70119;45.638;11.714;2023-05-17T01:58:56;24.10;52.50
62575;DHT22;70119;45.638;11.714;2023-05-17T02:01:25;24.10;52.50
62575;DHT22;70119;45.638;11.714;2023-05-17T02:03:53;24.10;52.50
62575;DHT22;70119;45.638;11.714;2023-05-17T02:06:19;24.10;52.40
62575;DHT22;70119;45.638;11.714;2023-05-17T02:08:45;24.10;52.50
62575;DHT22;70119;45.638;11.714;2023-05-17T02:11:11;24.10;52.50
62575;DHT22;70119;45.638;11.714;2023-05-17T02:13:37;24.10;52.50
62575;DHT22;70119;45.638;11.714;2023-05-17T02:16:03;24.10;52.50
62575;DHT22;70119;45.638;11.714;2023-05-17T02:18:29;24.10;52.50
62575;DHT22;70119;45.638;11.714;2023-05-17T02:20:57;24.10;52.50
62575;DHT22;70119;45.638;11.714;2023-05-17T02:23:23;24.10;52.50
62575;DHT22;70119;45.638;11.714;2023-05-17T02:25:50;24.10;52.50
62575;DHT22;70119;45.638;11.714;2023-05-17T02:28:16;24.10;52.50
62575;DHT22;70119;45.638;11.714;2023-05-17T02:30:41;24.10;52.50
62575;DHT22;70119;45.638;11.714;2023-05-17T02:33:09;24.10;52.50
62575;DHT22;70119;45.638;11.714;2023-05-17T02:35:34;24.10;52.50
62575;DHT22;70119;45.638;11.714;2023-05-17T02:38:00;24.10;52.50
62575;DHT22;70119;45.638;11.714;2023-05-17T02:40:26;24.10;52.50
62575;DHT22;70119;45.638;11.714;2023-05-17T02:42:52;24.10;52.50
62575;DHT22;70119;45.638;11.714;2023-05-17T02:45:18;24.10;52.50
62575;DHT22;70119;45.638;11.714;2023-05-17T02:47:44;24.10;52.50
62575;DHT22;70119;45.638;11.714;2023-05-17T02:50:09;24.10;52.40
62575;DHT22;70119;45.638;11.714;2023-05-17T02:52:35;24.00;52.50
62575;DHT22;70119;45.638;11.714;2023-05-17T02:55:01;24.00;52.50
62575;DHT22;70119;45.638;11.714;2023-05-17T02:57:28;24.10;52.50
62575;DHT22;70119;45.638;11.714;2023-05-17T02:59:54;24.00;52.50
62575;DHT22;70119;45.638;11.714;2023-05-17T03:02:19;24.10;52.50
62575;DHT22;70119;45.638;11.714;2023-05-17T03:04:45;24.10;52.50
62575;DHT22;70119;45.638;11.714;2023-05-17T03:07:11;24.00;52.50
62575;DHT22;70119;45.638;11.714;2023-05-17T03:09:37;24.10;52.50
62575;DHT22;70119;45.638;11.714;2023-05-17T03:12:03;24.00;52.50
62575;DHT22;70119;45.638;11.714;2023-05-17T03:14:29;24.00;52.50
62575;DHT22;70119;45.638;11.714;2023-05-17T03:16:55;24.00;52.50
62575;DHT22;70119;45.638;11.714;2023-05-17T03:19:21;24.00;52.50
62575;DHT22;70119;45.638;11.714;2023-05-17T03:21:47;24.00;52.60
62575;DHT22;70119;45.638;11.714;2023-05-17T03:24:13;24.00;52.50
62575;DHT22;70119;45.638;11.714;2023-05-17T03:26:39;24.00;52.60
62575;DHT22;70119;45.638;11.714;2023-05-17T03:29:05;24.00;52.60
62575;DHT22;70119;45.638;11.714;2023-05-17T03:31:31;24.00;52.60
62575;DHT22;70119;45.638;11.714;2023-05-17T03:33:57;23.90;52.60
62575;DHT22;70119;45.638;11.714;2023-05-17T03:36:23;24.00;52.60
62575;DHT22;70119;45.638;11.714;2023-05-17T03:38:49;24.00;52.60
62575;DHT22;70119;45.638;11.714;2023-05-17T03:41:14;24.00;52.60
62575;DHT22;70119;45.638;11.714;2023-05-17T03:43:40;24.00;52.60
62575;DHT22;70119;45.638;11.714;2023-05-17T03:46:06;24.00;52.60
62575;DHT22;70119;45.638;11.714;2023-05-17T03:48:32;23.90;52.60
62575;DHT22;70119;45.638;11.714;2023-05-17T03:50:58;24.00;52.70
62575;DHT22;70119;45.638;11.714;2023-05-17T03:53:24;24.00;52.70
62575;DHT22;70119;45.638;11.714;2023-05-17T03:55:50;24.00;52.70
62575;DHT22;70119;45.638;11.714;2023-05-17T03:58:16;24.00;52.70
62575;DHT22;70119;45.638;11.714;2023-05-17T04:00:42;24.00;52.70
62575;DHT22;70119;45.638;11.714;2023-05-17T04:03:08;24.00;52.70
62575;DHT22;70119;45.638;11.714;2023-05-17T04:05:34;23.90;52.70
62575;DHT22;70119;45.638;11.714;2023-05-17T04:08:00;23.90;52.60
62575;DHT22;70119;45.638;11.714;2023-05-17T04:10:26;23.90;52.60
62575;DHT22;70119;45.638;11.714;2023-05-17T04:12:52;24.00;52.70
62575;DHT22;70119;45.638;11.714;2023-05-17T04:15:17;23.80;52.80
62575;DHT22;70119;45.638;11.714;2023-05-17T04:17:43;23.80;52.90
62575;DHT22;70119;45.638;11.714;2023-05-17T04:20:10;23.80;52.90
62575;DHT22;70119;45.638;11.714;2023-05-17T04:22:36;23.80;53.00
62575;DHT22;70119;45.638;11.714;2023-05-17T04:25:02;23.80;53.00
62575;DHT22;70119;45.638;11.714;2023-05-17T04:27:28;23.80;53.00
62575;DHT22;70119;45.638;11.714;2023-05-17T04:29:54;23.80;53.00
62575;DHT22;70119;45.638;11.714;2023-05-17T04:32:20;23.90;52.80
62575;DHT22;70119;45.638;11.714;2023-05-17T04:34:46;23.90;52.80
62575;DHT22;70119;45.638;11.714;2023-05-17T04:37:12;23.90;52.70
62575;DHT22;70119;45.638;11.714;2023-05-17T04:39:38;23.90;52.70
62575;DHT22;70119;45.638;11.714;2023-05-17T04:42:04;23.90;52.70
62575;DHT22;70119;45.638;11.714;2023-05-17T04:44:30;23.90;52.70
62575;DHT22;70119;45.638;11.714;2023-05-17T04:46:56;23.90;52.70
62575;DHT22;70119;45.638;11.714;2023-05-17T04:49:22;23.90;52.70
62575;DHT22;70119;45.638;11.714;2023-05-17T04:51:49;23.90;52.70
62575;DHT22;70119;45.638;11.714;2023-05-17T04:54:15;23.90;52.70
62575;DHT22;70119;45.638;11.714;2023-05-17T04:56:41;23.90;52.70
62575;DHT22;70119;45.638;11.714;2023-05-17T04:59:07;23.90;52.70
62575;DHT22;70119;45.638;11.714;2023-05-17T05:01:32;23.90;52.70
62575;DHT22;70119;45.638;11.714;2023-05-17T05:04:00;23.90;52.70
62575;DHT22;70119;45.638;11.714;2023-05-17T05:06:32;23.90;52.70
62575;DHT22;70119;45.638;11.714;2023-05-17T05:08:59;23.90;52.60
62575;DHT22;70119;45.638;11.714;2023-05-17T05:11:25;23.90;52.70
62575;DHT22;70119;45.638;11.714;2023-05-17T05:13:51;23.90;52.70
62575;DHT22;70119;45.638;11.714;2023-05-17T05:16:17;23.90;52.70
62575;DHT22;70119;45.638;11.714;2023-05-17T05:18:43;23.90;52.70
62575;DHT22;70119;45.638;11.714;2023-05-17T05:21:08;23.90;52.70
62575;DHT22;70119;45.638;11.714;2023-05-17T05:23:40;23.90;52.80
62575;DHT22;70119;45.638;11.714;2023-05-17T05:26:06;23.90;52.70
62575;DHT22;70119;45.638;11.714;2023-05-17T05:28:32;23.90;52.70
62575;DHT22;70119;45.638;11.714;2023-05-17T05:30:58;23.90;52.70
62575;DHT22;70119;45.638;11.714;2023-05-17T05:33:25;23.90;52.70
62575;DHT22;70119;45.638;11.714;2023-05-17T05:35:51;23.90;52.70
62575;DHT22;70119;45.638;11.714;2023-05-17T05:38:17;23.90;52.70
62575;DHT22;70119;45.638;11.714;2023-05-17T05:40:45;23.90;52.70
62575;DHT22;70119;45.638;11.714;2023-05-17T05:43:13;23.90;52.70
62575;DHT22;70119;45.638;11.714;2023-05-17T05:45:39;23.90;52.70
62575;DHT22;70119;45.638;11.714;2023-05-17T05:48:12;23.90;52.70
62575;DHT22;70119;45.638;11.714;2023-05-17T05:50:40;23.90;52.70
62575;DHT22;70119;45.638;11.714;2023-05-17T05:53:08;23.90;52.70
62575;DHT22;70119;45.638;11.714;2023-05-17T05:55:34;23.90;52.70
62575;DHT22;70119;45.638;11.714;2023-05-17T05:58:00;23.90;52.60
62575;DHT22;70119;45.638;11.714;2023-05-17T06:00:26;23.90;52.70
62575;DHT22;70119;45.638;11.714;2023-05-17T06:02:52;23.90;52.60
62575;DHT22;70119;45.638;11.714;2023-05-17T06:05:19;23.90;52.70
62575;DHT22;70119;45.638;11.714;2023-05-17T06:07:44;23.90;52.70
62575;DHT22;70119;45.638;11.714;2023-05-17T06:10:10;23.90;52.70
62575;DHT22;70119;45.638;11.714;2023-05-17T06:12:36;23.80;52.70
62575;DHT22;70119;45.638;11.714;2023-05-17T06:15:02;23.80;52.70
62575;DHT22;70119;45.638;11.714;2023-05-17T06:17:28;23.90;52.80
62575;DHT22;70119;45.638;11.714;2023-05-17T06:19:54;23.90;53.00
62575;DHT22;70119;45.638;11.714;2023-05-17T06:22:20;23.90;53.10
62575;DHT22;70119;45.638;11.714;2023-05-17T06:24:46;23.90;53.10
62575;DHT22;70119;45.638;11.714;2023-05-17T06:27:12;23.90;53.20
62575;DHT22;70119;45.638;11.714;2023-05-17T06:29:38;23.90;53.20
62575;DHT22;70119;45.638;11.714;2023-05-17T06:32:04;23.90;53.20
62575;DHT22;70119;45.638;11.714;2023-05-17T06:34:30;23.90;53.30
62575;DHT22;70119;45.638;11.714;2023-05-17T06:36:57;23.90;53.40
62575;DHT22;70119;45.638;11.714;2023-05-17T06:39:23;23.90;53.40
62575;DHT22;70119;45.638;11.714;2023-05-17T06:41:49;23.90;53.50
62575;DHT22;70119;45.638;11.714;2023-05-17T06:44:14;23.90;53.50
62575;DHT22;70119;45.638;11.714;2023-05-17T06:46:40;23.90;53.50
62575;DHT22;70119;45.638;11.714;2023-05-17T06:49:06;23.90;53.50
62575;DHT22;70119;45.638;11.714;2023-05-17T06:51:32;23.90;53.50
62575;DHT22;70119;45.638;11.714;2023-05-17T06:53:58;23.90;53.50
62575;DHT22;70119;45.638;11.714;2023-05-17T06:56:24;24.00;53.60
62575;DHT22;70119;45.638;11.714;2023-05-17T06:58:50;23.90;53.60
62575;DHT22;70119;45.638;11.714;2023-05-17T07:01:16;23.90;53.60
62575;DHT22;70119;45.638;11.714;2023-05-17T07:03:41;24.00;53.60
62575;DHT22;70119;45.638;11.714;2023-05-17T07:06:07;24.00;53.70
62575;DHT22;70119;45.638;11.714;2023-05-17T07:08:33;24.00;53.70
62575;DHT22;70119;45.638;11.714;2023-05-17T07:10:59;24.00;53.70
62575;DHT22;70119;45.638;11.714;2023-05-17T07:13:25;24.00;53.70
62575;DHT22;70119;45.638;11.714;2023-05-17T07:15:51;24.00;53.70
62575;DHT22;70119;45.638;11.714;2023-05-17T07:18:17;24.00;53.70
62575;DHT22;70119;45.638;11.714;2023-05-17T07:20:43;24.00;53.80
62575;DHT22;70119;45.638;11.714;2023-05-17T07:23:09;24.00;53.70
62575;DHT22;70119;45.638;11.714;2023-05-17T07:25:34;24.00;53.70
62575;DHT22;70119;45.638;11.714;2023-05-17T07:28:04;24.00;53.70
62575;DHT22;70119;45.638;11.714;2023-05-17T07:30:30;24.00;53.80
62575;DHT22;70119;45.638;11.714;2023-05-17T07:32:55;24.00;53.80
62575;DHT22;70119;45.638;11.714;2023-05-17T07:35:21;24.00;53.70
62575;DHT22;70119;45.638;11.714;2023-05-17T07:37:47;24.00;53.70
62575;DHT22;70119;45.638;11.714;2023-05-17T07:40:13;24.00;53.80
62575;DHT22;70119;45.638;11.714;2023-05-17T07:42:39;24.00;53.80
62575;DHT22;70119;45.638;11.714;2023-05-17T07:45:05;24.00;53.90
62575;DHT22;70119;45.638;11.714;2023-05-17T07:47:31;24.00;53.80
62575;DHT22;70119;45.638;11.714;2023-05-17T07:49:57;24.00;53.90
62575;DHT22;70119;45.638;11.714;2023-05-17T07:52:23;24.00;53.90
62575;DHT22;70119;45.638;11.714;2023-05-17T07:54:49;24.10;53.80
62575;DHT22;70119;45.638;11.714;2023-05-17T07:57:15;24.00;53.90
62575;DHT22;70119;45.638;11.714;2023-05-17T07:59:41;24.10;53.80
62575;DHT22;70119;45.638;11.714;2023-05-17T08:02:07;24.10;53.80
62575;DHT22;70119;45.638;11.714;2023-05-17T08:04:32;24.10;53.80
62575;DHT22;70119;45.638;11.714;2023-05-17T08:06:58;24.00;53.80
62575;DHT22;70119;45.638;11.714;2023-05-17T08:09:25;24.10;53.70
62575;DHT22;70119;45.638;11.714;2023-05-17T08:11:51;24.10;53.80
62575;DHT22;70119;45.638;11.714;2023-05-17T08:14:20;24.10;53.70
62575;DHT22;70119;45.638;11.714;2023-05-17T08:16:46;24.00;53.70
62575;DHT22;70119;45.638;11.714;2023-05-17T08:19:13;24.10;53.70
62575;DHT22;70119;45.638;11.714;2023-05-17T08:21:40;24.10;53.80
62575;DHT22;70119;45.638;11.714;2023-05-17T08:24:07;24.10;53.80
62575;DHT22;70119;45.638;11.714;2023-05-17T08:26:33;24.10;53.80
62575;DHT22;70119;45.638;11.714;2023-05-17T08:29:01;24.10;53.70
62575;DHT22;70119;45.638;11.714;2023-05-17T08:31:27;24.10;53.50
62575;DHT22;70119;45.638;11.714;2023-05-17T08:33:53;24.20;53.40
62575;DHT22;70119;45.638;11.714;2023-05-17T08:36:19;24.20;53.40
62575;DHT22;70119;45.638;11.714;2023-05-17T08:38:45;24.20;53.40
62575;DHT22;70119;45.638;11.714;2023-05-17T08:41:12;24.20;53.50
62575;DHT22;70119;45.638;11.714;2023-05-17T08:43:38;24.20;53.50
62575;DHT22;70119;45.638;11.714;2023-05-17T08:46:04;24.20;53.50
62575;DHT22;70119;45.638;11.714;2023-05-17T08:48:30;24.20;53.50
62575;DHT22;70119;45.638;11.714;2023-05-17T08:50:57;24.20;53.50
62575;DHT22;70119;45.638;11.714;2023-05-17T08:53:24;24.20;53.50
62575;DHT22;70119;45.638;11.714;2023-05-17T08:55:54;24.20;53.60
62575;DHT22;70119;45.638;11.714;2023-05-17T08:58:27;24.20;53.50
62575;DHT22;70119;45.638;11.714;2023-05-17T09:00:57;24.20;53.60
62575;DHT22;70119;45.638;11.714;2023-05-17T09:03:24;24.20;53.50
62575;DHT22;70119;45.638;11.714;2023-05-17T09:05:52;24.20;53.50
62575;DHT22;70119;45.638;11.714;2023-05-17T09:08:22;24.20;53.50
62575;DHT22;70119;45.638;11.714;2023-05-17T09:10:48;24.20;53.60
62575;DHT22;70119;45.638;11.714;2023-05-17T09:13:14;24.20;53.50
62575;DHT22;70119;45.638;11.714;2023-05-17T09:15:46;24.20;53.60
62575;DHT22;70119;45.638;11.714;2023-05-17T09:18:13;24.20;53.50
62575;DHT22;70119;45.638;11.714;2023-05-17T09:20:39;24.30;53.50
62575;DHT22;70119;45.638;11.714;2023-05-17T09:23:07;24.20;53.50
62575;DHT22;70119;45.638;11.714;2023-05-17T09:25:46;24.30;53.40
62575;DHT22;70119;45.638;11.714;2023-05-17T09:28:13;24.30;53.40
62575;DHT22;70119;45.638;11.714;2023-05-17T09:30:39;24.30;53.40
62575;DHT22;70119;45.638;11.714;2023-05-17T09:33:07;24.30;53.30
62575;DHT22;70119;45.638;11.714;2023-05-17T09:35:35;24.30;53.30
62575;DHT22;70119;45.638;11.714;2023-05-17T09:38:10;24.30;53.30
62575;DHT22;70119;45.638;11.714;2023-05-17T09:40:40;24.30;53.30
62575;DHT22;70119;45.638;11.714;2023-05-17T09:43:07;24.30;53.20
62575;DHT22;70119;45.638;11.714;2023-05-17T09:45:34;24.30;53.20
62575;DHT22;70119;45.638;11.714;2023-05-17T09:48:26;24.30;53.20
62575;DHT22;70119;45.638;11.714;2023-05-17T09:50:53;24.40;53.20
62575;DHT22;70119;45.638;11.714;2023-05-17T09:53:26;24.30;53.10
62575;DHT22;70119;45.638;11.714;2023-05-17T09:55:53;24.40;53.10
62575;DHT22;70119;45.638;11.714;2023-05-17T09:58:21;24.30;53.10
62575;DHT22;70119;45.638;11.714;2023-05-17T10:00:55;24.30;53.10
62575;DHT22;70119;45.638;11.714;2023-05-17T10:03:26;24.40;53.10
62575;DHT22;70119;45.638;11.714;2023-05-17T10:05:54;24.40;53.00
62575;DHT22;70119;45.638;11.714;2023-05-17T10:08:22;24.40;53.00
62575;DHT22;70119;45.638;11.714;2023-05-17T10:10:48;24.30;53.10
62575;DHT22;70119;45.638;11.714;2023-05-17T10:13:20;24.30;53.10
62575;DHT22;70119;45.638;11.714;2023-05-17T10:15:49;24.40;53.10
62575;DHT22;70119;45.638;11.714;2023-05-17T10:18:16;24.40;53.10
62575;DHT22;70119;45.638;11.714;2023-05-17T10:20:43;24.40;53.10
62575;DHT22;70119;45.638;11.714;2023-05-17T10:23:10;24.40;53.20
62575;DHT22;70119;45.638;11.714;2023-05-17T10:25:37;24.40;53.20
62575;DHT22;70119;45.638;11.714;2023-05-17T10:28:04;24.40;53.20
62575;DHT22;70119;45.638;11.714;2023-05-17T10:30:33;24.40;53.20
62575;DHT22;70119;45.638;11.714;2023-05-17T10:33:01;24.40;53.10
62575;DHT22;70119;45.638;11.714;2023-05-17T10:35:29;24.40;53.10
62575;DHT22;70119;45.638;11.714;2023-05-17T10:37:57;24.40;53.20
62575;DHT22;70119;45.638;11.714;2023-05-17T10:40:23;24.40;53.10
62575;DHT22;70119;45.638;11.714;2023-05-17T10:42:51;24.40;53.20
62575;DHT22;70119;45.638;11.714;2023-05-17T10:45:22;24.40;53.20
62575;DHT22;70119;45.638;11.714;2023-05-17T10:47:51;24.40;53.20
62575;DHT22;70119;45.638;11.714;2023-05-17T10:50:25;24.40;53.30
62575;DHT22;70119;45.638;11.714;2023-05-17T10:52:52;24.40;53.30
62575;DHT22;70119;45.638;11.714;2023-05-17T10:55:22;24.40;53.20
62575;DHT22;70119;45.638;11.714;2023-05-17T10:58:18;24.40;53.10
62575;DHT22;70119;45.638;11.714;2023-05-17T11:00:49;24.40;53.00
62575;DHT22;70119;45.638;11.714;2023-05-17T11:03:28;24.40;53.10
62575;DHT22;70119;45.638;11.714;2023-05-17T11:08:45;24.50;53.20
62575;DHT22;70119;45.638;11.714;2023-05-17T11:11:30;24.40;53.00
62575;DHT22;70119;45.638;11.714;2023-05-17T11:13:56;24.40;53.10
62575;DHT22;70119;45.638;11.714;2023-05-17T11:16:36;24.40;53.10
62575;DHT22;70119;45.638;11.714;2023-05-17T11:19:09;24.50;53.00
62575;DHT22;70119;45.638;11.714;2023-05-17T11:21:45;24.40;53.20
62575;DHT22;70119;45.638;11.714;2023-05-17T11:24:15;24.40;53.20
62575;DHT22;70119;45.638;11.714;2023-05-17T11:26:44;24.40;53.00
62575;DHT22;70119;45.638;11.714;2023-05-17T11:29:11;24.50;53.10
62575;DHT22;70119;45.638;11.714;2023-05-17T11:31:43;24.40;53.10
62575;DHT22;70119;45.638;11.714;2023-05-17T11:34:10;24.50;53.00
62575;DHT22;70119;45.638;11.714;2023-05-17T11:36:50;24.40;53.10
62575;DHT22;70119;45.638;11.714;2023-05-17T11:39:22;24.50;53.10
62575;DHT22;70119;45.638;11.714;2023-05-17T11:41:55;24.50;53.10
62575;DHT22;70119;45.638;11.714;2023-05-17T11:44:29;24.50;53.10
62575;DHT22;70119;45.638;11.714;2023-05-17T11:47:06;24.50;53.10
62575;DHT22;70119;45.638;11.714;2023-05-17T11:49:36;24.50;53.10
62575;DHT22;70119;45.638;11.714;2023-05-17T11:52:06;24.50;53.20
62575;DHT22;70119;45.638;11.714;2023-05-17T11:54:33;24.50;53.20
62575;DHT22;70119;45.638;11.714;2023-05-17T11:56:59;24.50;53.20
62575;DHT22;70119;45.638;11.714;2023-05-17T11:59:27;24.50;53.10
62575;DHT22;70119;45.638;11.714;2023-05-17T12:01:53;24.50;53.20
62575;DHT22;70119;45.638;11.714;2023-05-17T12:04:24;24.50;53.20
62575;DHT22;70119;45.638;11.714;2023-05-17T12:06:52;24.60;53.20
62575;DHT22;70119;45.638;11.714;2023-05-17T12:09:19;24.60;53.10
62575;DHT22;70119;45.638;11.714;2023-05-17T12:11:46;24.60;53.20
62575;DHT22;70119;45.638;11.714;2023-05-17T12:14:16;24.60;53.10
62575;DHT22;70119;45.638;11.714;2023-05-17T12:16:53;24.60;53.10
62575;DHT22;70119;45.638;11.714;2023-05-17T12:19:23;24.60;53.00
62575;DHT22;70119;45.638;11.714;2023-05-17T12:22:04;24.60;53.10
62575;DHT22;70119;45.638;11.714;2023-05-17T12:24:38;24.60;52.80
62575;DHT22;70119;45.638;11.714;2023-05-17T12:27:05;24.60;53.20
62575;DHT22;70119;45.638;11.714;2023-05-17T12:29:32;24.60;53.00
62575;DHT22;70119;45.638;11.714;2023-05-17T12:31:59;24.60;52.90
62575;DHT22;70119;45.638;11.714;2023-05-17T12:34:27;24.60;52.60
62575;DHT22;70119;45.638;11.714;2023-05-17T12:36:54;24.60;52.60
62575;DHT22;70119;45.638;11.714;2023-05-17T12:39:20;24.60;52.70
62575;DHT22;70119;45.638;11.714;2023-05-17T12:41:49;24.60;52.90
62575;DHT22;70119;45.638;11.714;2023-05-17T12:44:18;24.60;53.00
62575;DHT22;70119;45.638;11.714;2023-05-17T12:46:48;24.60;53.00
62575;DHT22;70119;45.638;11.714;2023-05-17T12:49:22;24.60;52.90
62575;DHT22;70119;45.638;11.714;2023-05-17T12:51:48;24.60;52.70
62575;DHT22;70119;45.638;11.714;2023-05-17T12:54:24;24.60;52.80
62575;DHT22;70119;45.638;11.714;2023-05-17T12:56:51;24.60;52.70
62575;DHT22;70119;45.638;11.714;2023-05-17T12:59:18;24.60;52.70
62575;DHT22;70119;45.638;11.714;2023-05-17T13:01:46;24.60;52.60
62575;DHT22;70119;45.638;11.714;2023-05-17T13:04:14;24.60;52.60
62575;DHT22;70119;45.638;11.714;2023-05-17T13:06:47;24.60;52.50
62575;DHT22;70119;45.638;11.714;2023-05-17T13:09:14;24.60;52.70
62575;DHT22;70119;45.638;11.714;2023-05-17T13:11:52;24.70;52.70
62575;DHT22;70119;45.638;11.714;2023-05-17T13:17:04;24.70;52.60
62575;DHT22;70119;45.638;11.714;2023-05-17T13:19:30;24.60;52.80
62575;DHT22;70119;45.638;11.714;2023-05-17T13:21:56;24.60;52.90
62575;DHT22;70119;45.638;11.714;2023-05-17T13:24:32;24.60;53.00
62575;DHT22;70119;45.638;11.714;2023-05-17T13:26:58;24.60;52.90
62575;DHT22;70119;45.638;11.714;2023-05-17T13:29:24;24.60;53.00
62575;DHT22;70119;45.638;11.714;2023-05-17T13:31:50;24.60;52.90
62575;DHT22;70119;45.638;11.714;2023-05-17T13:34:17;24.70;52.80
62575;DHT22;70119;45.638;11.714;2023-05-17T13:36:46;24.60;52.90
62575;DHT22;70119;45.638;11.714;2023-05-17T13:39:12;24.70;52.90
62575;DHT22;70119;45.638;11.714;2023-05-17T13:41:38;24.60;52.90
62575;DHT22;70119;45.638;11.714;2023-05-17T13:44:05;24.70;52.90
62575;DHT22;70119;45.638;11.714;2023-05-17T13:46:31;24.70;52.90
62575;DHT22;70119;45.638;11.714;2023-05-17T13:48:58;24.70;52.90
62575;DHT22;70119;45.638;11.714;2023-05-17T13:51:24;24.70;52.90
62575;DHT22;70119;45.638;11.714;2023-05-17T13:53:50;24.70;53.00
62575;DHT22;70119;45.638;11.714;2023-05-17T13:56:16;24.60;52.60
62575;DHT22;70119;45.638;11.714;2023-05-17T13:58:42;24.60;52.40
62575;DHT22;70119;45.638;11.714;2023-05-17T14:01:08;24.60;52.80
62575;DHT22;70119;45.638;11.714;2023-05-17T14:03:34;24.60;52.50
62575;DHT22;70119;45.638;11.714;2023-05-17T14:06:03;24.70;52.50
62575;DHT22;70119;45.638;11.714;2023-05-17T14:08:29;24.70;52.40
62575;DHT22;70119;45.638;11.714;2023-05-17T14:10:55;24.70;52.40
62575;DHT22;70119;45.638;11.714;2023-05-17T14:13:21;24.70;52.40
62575;DHT22;70119;45.638;11.714;2023-05-17T14:15:47;24.70;52.40
62575;DHT22;70119;45.638;11.714;2023-05-17T14:18:13;24.70;52.30
62575;DHT22;70119;45.638;11.714;2023-05-17T14:20:39;24.70;52.50
62575;DHT22;70119;45.638;11.714;2023-05-17T14:23:05;24.70;52.30
62575;DHT22;70119;45.638;11.714;2023-05-17T14:25:31;24.70;52.10
62575;DHT22;70119;45.638;11.714;2023-05-17T14:27:57;24.70;52.30
62575;DHT22;70119;45.638;11.714;2023-05-17T14:30:23;24.70;52.50
62575;DHT22;70119;45.638;11.714;2023-05-17T14:32:49;24.70;52.60
62575;DHT22;70119;45.638;11.714;2023-05-17T14:35:15;24.80;52.50
62575;DHT22;70119;45.638;11.714;2023-05-17T14:37:44;24.70;52.70
62575;DHT22;70119;45.638;11.714;2023-05-17T14:40:11;24.70;52.70
62575;DHT22;70119;45.638;11.714;2023-05-17T14:42:37;24.70;52.60
62575;DHT22;70119;45.638;11.714;2023-05-17T14:45:04;24.70;52.60
62575;DHT22;70119;45.638;11.714;2023-05-17T14:47:30;24.70;52.60
62575;DHT22;70119;45.638;11.714;2023-05-17T14:49:56;24.70;52.60
62575;DHT22;70119;45.638;11.714;2023-05-17T14:52:22;24.70;52.50
62575;DHT22;70119;45.638;11.714;2023-05-17T14:54:48;24.70;52.60
62575;DHT22;70119;45.638;11.714;2023-05-17T14:57:14;24.70;52.60
62575;DHT22;70119;45.638;11.714;2023-05-17T14:59:40;24.70;52.60
62575;DHT22;70119;45.638;11.714;2023-05-17T15:02:06;24.70;52.60
62575;DHT22;70119;45.638;11.714;2023-05-17T15:04:32;24.70;52.50
62575;DHT22;70119;45.638;11.714;2023-05-17T15:06:58;24.70;52.50
62575;DHT22;70119;45.638;11.714;2023-05-17T15:09:24;24.70;52.30
62575;DHT22;70119;45.638;11.714;2023-05-17T15:11:50;24.70;52.30
62575;DHT22;70119;45.638;11.714;2023-05-17T15:14:17;24.70;52.20
62575;DHT22;70119;45.638;11.714;2023-05-17T15:16:50;24.70;52.40
62575;DHT22;70119;45.638;11.714;2023-05-17T15:19:17;24.70;52.40
62575;DHT22;70119;45.638;11.714;2023-05-17T15:21:43;24.70;52.40
62575;DHT22;70119;45.638;11.714;2023-05-17T15:24:10;24.70;52.20
62575;DHT22;70119;45.638;11.714;2023-05-17T15:26:37;24.70;52.20
62575;DHT22;70119;45.638;11.714;2023-05-17T15:29:03;24.80;52.30
62575;DHT22;70119;45.638;11.714;2023-05-17T15:31:29;24.70;52.30
62575;DHT22;70119;45.638;11.714;2023-05-17T15:33:55;24.70;52.40
62575;DHT22;70119;45.638;11.714;2023-05-17T15:36:22;24.70;52.40